• Join FlightAware (Why Join?)
  • Login
  • US Flag 
11:39PM EST


 

Airport Tracker/Info


-or-


 

Live Flight TrackerFlight Track Log ✈ AFL150 ✈ 25-Jul-2013 ✈ UUEE / SVO - MUHA / HAV

Flight Track Log - Related Links

Times and Time Zones

All times are in EDT time to prevent confusion due to time zone crossing. See the AFL150 flight status page for this flight to view local times or setup timezone preferences in your user account.

Time Position Orientation Groundspeed Altitude Reporting Facility
EDT Latitude Longitude Course Direction KTS MPH feet Rate Location/Type
06:36AM 55.9780 37.4590 73° East 190 219 1,600  Level FlightAware
06:36AM 55.9850 37.5030 74° East 179 206 3,100 2,160 Climbing FlightAware
06:37AM 55.9910 37.5460 76° East 184 212 3,800 1,380 Climbing FlightAware
06:37AM 55.9960 37.5840 77° East 193 222 4,400 960 Climbing FlightAware
06:37AM 56.0040 37.6340 74° East 229 264 4,700 840 Climbing FlightAware
06:38AM 56.0130 37.6940 75° East 260 299 5,300 1,740 Climbing FlightAware
06:38AM 56.0290 37.7380 57° Northeast 262 302 6,300 2,280 Climbing FlightAware
06:39AM 56.0460 37.7480 18° North 265 305 6,800 2,160 Climbing FlightAware
06:39AM 56.0580 37.7470 357° North 269 310 7,200 2,160 Climbing FlightAware
06:39AM 56.0750 37.7320 334° Northwest 276 318 7,700 2,160 Climbing FlightAware
06:39AM 56.0860 37.7030 304° West 282 325 8,300 2,400 Climbing FlightAware
06:40AM 56.0890 37.6690 279° West 286 329 8,900 2,700 Climbing FlightAware
06:40AM 56.0980 37.6320 294° West 284 327 9,900 1,800 Climbing FlightAware
06:41AM 56.0680 37.5120 246° West 322 371 10,900 1,380 Climbing FlightAware
06:41AM 56.0550 37.4040 258° West 349 402 11,900 1,380 Climbing FlightAware
06:42AM 56.0520 37.2790 268° West 368 423 12,900 1,500 Climbing FlightAware
06:43AM 56.0700 37.1510 284° West 386 444 14,100 1,920 Climbing FlightAware
06:43AM 56.0830 37.0280 281° West 395 455 15,500 2,040 Climbing FlightAware
06:44AM 56.0970 36.8830 280° West 404 465 17,000 1,920 Climbing FlightAware
06:45AM 56.1110 36.7470 281° West 413 475 18,200 1,860 Climbing FlightAware
06:45AM 56.1240 36.6270 281° West 418 481 19,400 1,860 Climbing FlightAware
06:46AM 56.1380 36.4800 280° West 424 488 20,700 1,560 Climbing FlightAware
06:47AM 56.1530 36.3340 281° West 436 502 21,600 1,380 Climbing FlightAware
06:47AM 56.1650 36.2080 280° West 443 510 22,500 1,500 Climbing FlightAware
06:48AM 56.1790 36.0600 280° West 449 517 23,500 1,500 Climbing FlightAware
06:49AM 56.1940 35.9110 280° West 455 524 24,500 1,260 Climbing FlightAware
06:49AM 56.2090 35.7490 280° West 463 533 25,300 1,140 Climbing FlightAware
06:50AM 56.2240 35.5810 279° West 469 540 26,200 1,140 Climbing FlightAware
06:51AM 56.2380 35.4290 279° West 475 547 26,900 1,140 Climbing FlightAware
06:52AM 56.2540 35.2540 279° West 480 552 27,800 960 Climbing FlightAware
06:52AM 56.2680 35.0990 279° West 487 560 28,300 840 Climbing FlightAware
06:53AM 56.2840 34.9170 279° West 491 565 29,000 1,020 Climbing FlightAware
06:54AM 56.2980 34.7560 279° West 490 564 29,800 960 Climbing FlightAware
06:54AM 56.3110 34.6000 279° West 496 571 30,300 840 Climbing FlightAware
06:55AM 56.3250 34.4260 278° West 498 573 31,000 840 Climbing FlightAware
06:56AM 56.3410 34.2330 279° West 501 577 31,600 1,200 Climbing FlightAware
06:57AM 56.3540 34.0670 278° West 486 559 32,800 1,680 Climbing FlightAware
06:57AM 56.3670 33.9000 278° West 472 543 34,000 840 Climbing FlightAware
06:58AM 56.3800 33.7260 278° West 484 557 34,000  Level FlightAware
06:59AM 56.3910 33.5810 278° West 487 560 34,000  Level FlightAware
06:59AM 56.4060 33.3900 278° West 486 559 34,000  Level FlightAware
07:00AM 56.4140 33.2790 277° West 485 558 34,000  Level FlightAware
07:01AM 56.4280 33.0860 278° West 484 557 34,000  Level FlightAware
07:01AM 56.4370 32.9510 277° West 485 558 34,000  Level FlightAware
07:02AM 56.4480 32.7870 277° West 485 558 34,000  Level FlightAware
07:03AM 56.4610 32.6080 278° West 486 559 34,000  Level FlightAware
07:03AM 56.4700 32.4640 277° West 485 558 34,000  Level FlightAware
07:04AM 56.4820 32.2850 277° West 486 559 34,000  Level FlightAware
07:05AM 56.4930 32.1030 276° West 487 560 34,000  Level FlightAware
07:05AM 56.5060 31.9020 277° West 487 560 34,000  Level FlightAware
07:06AM 56.5130 31.7810 276° West 486 559 34,000  Level FlightAware
07:07AM 56.5230 31.6090 276° West 486 559 34,000  Level FlightAware
07:07AM 56.5300 31.4840 276° West 486 559 34,000  Level FlightAware
07:08AM 56.5370 31.3600 276° West 486 559 34,000  Level FlightAware
07:09AM 56.5470 31.1950 276° West 486 559 34,000  Level FlightAware
07:09AM 56.5540 31.0710 276° West 486 559 34,000  Level FlightAware
07:10AM 56.5640 30.9050 276° West 486 559 34,000  Level FlightAware
07:11AM 56.5710 30.7840 276° West 486 559 34,000  Level FlightAware
07:12AM 56.5800 30.6150 276° West 486 559 34,000  Level FlightAware
07:12AM 56.5880 30.4880 277° West 486 559 34,000  Level FlightAware
07:13AM 56.5950 30.3630 276° West 486 559 34,000  Level FlightAware
07:14AM 56.6070 30.1560 276° West 486 559 34,000  Level FlightAware
07:15AM 56.6140 30.0320 276° West 486 559 34,000  Level FlightAware
07:15AM 56.6210 29.9070 276° West 486 559 34,000  Level FlightAware
07:16AM 57.0870 29.7150 347° North 459 528 34,000  Level FlightAware
07:17AM 57.1350 29.5800 303° West 460 529 34,000  Level FlightAware
07:17AM 57.1840 29.4430 303° West 461 531 34,000  Level FlightAware
07:18AM 57.2330 29.3040 303° West 460 529 34,000  Level FlightAware
07:19AM 57.2810 29.1700 304° West 459 528 34,000  Level FlightAware
07:19AM 57.3260 29.0420 303° West 458 527 34,000  Level FlightAware
07:20AM 57.3770 28.8950 303° West 458 527 34,000  Level FlightAware
07:21AM 57.4340 28.7320 303° West 461 531 34,000  Level FlightAware
07:22AM 57.4790 28.6000 302° West 461 531 34,000  Level FlightAware
07:22AM 57.5250 28.4660 303° West 459 528 34,000  Level FlightAware
07:23AM 57.5710 28.3310 302° West 459 528 34,000  Level FlightAware
07:24AM 57.6150 28.2020 303° West 460 529 34,000  Level FlightAware
07:24AM 57.6670 28.0480 302° West 461 531 34,000  Level FlightAware
07:25AM 57.7120 27.9120 302° West 460 529 34,000  Level FlightAware
07:26AM 57.7620 27.7640 302° West 460 529 34,000  Level FlightAware
07:27AM 57.8130 27.6080 302° West 459 528 34,000  Level FlightAware
07:27AM 57.8460 27.4860 297° West 462 532 34,000  Level FlightAware
07:28AM 57.8800 27.3180 291° West 461 531 34,000  Level FlightAware
07:29AM 57.9130 27.1510 290° West 459 528 34,000  Level FlightAware
07:29AM 57.9440 26.9980 291° West 459 528 34,000  Level FlightAware
07:30AM 57.9780 26.8300 291° West 457 526 34,000  Level FlightAware
07:31AM 58.0020 26.7040 290° West 457 526 34,000  Level FlightAware
07:31AM 58.0360 26.5330 291° West 458 527 34,000  Level FlightAware
07:32AM 58.0630 26.3920 290° West 460 529 34,000  Level FlightAware
07:33AM 58.0980 26.2120 290° West 459 528 34,000  Level FlightAware
07:34AM 58.1270 26.0640 290° West 459 528 34,000  Level FlightAware
07:34AM 58.1590 25.8940 290° West 459 528 34,000  Level FlightAware
07:35AM 58.1860 25.7470 289° West 458 527 34,000  Level FlightAware
07:36AM 58.2190 25.5730 290° West 458 527 34,000  Level FlightAware
07:36AM 58.2460 25.4260 289° West 458 527 34,000  Level FlightAware
07:37AM 58.2750 25.2700 290° West 459 528 34,000  Level FlightAware
07:38AM 58.3030 25.1170 289° West 459 528 34,000  Level FlightAware
07:38AM 58.3300 24.9650 289° West 458 527 34,000  Level FlightAware
07:39AM 58.3570 24.8140 289° West 457 526 34,000  Level FlightAware
07:40AM 58.3960 24.5950 289° West 455 524 34,000  Level FlightAware
07:41AM 58.4230 24.4420 289° West 455 524 34,000  Level FlightAware
07:41AM 58.4480 24.2800 286° West 456 525 34,000  Level FlightAware
07:42AM 58.4650 24.1610 285° West 457 526 34,000  Level FlightAware
07:43AM 58.4900 23.9910 286° West 458 527 34,000  Level FlightAware
07:43AM 58.5170 23.8100 286° West 459 528 34,000  Level FlightAware
07:44AM 58.5400 23.6550 286° West 458 527 34,000  Level FlightAware
07:45AM 58.5650 23.4830 286° West 455 524 34,000  Level FlightAware
07:45AM 58.5880 23.3280 286° West 454 522 34,000  Level FlightAware
07:46AM 58.6110 23.1660 285° West 453 521 34,000  Level FlightAware
07:47AM 58.6300 23.0280 285° West 453 521 34,000  Level FlightAware
07:47AM 58.6520 22.8720 285° West 454 522 34,000  Level FlightAware
07:48AM 58.6750 22.7110 285° West 455 524 34,000  Level FlightAware
07:49AM 58.6950 22.5610 284° West 454 522 34,000  Level FlightAware
07:49AM 58.7170 22.4000 285° West 453 521 34,000  Level FlightAware
07:50AM 58.7390 22.2390 285° West 454 522 34,000  Level FlightAware
07:51AM 58.7580 22.0960 284° West 456 525 34,000  Level FlightAware
07:51AM 58.7810 21.9200 284° West 456 525 34,000  Level FlightAware
07:52AM 58.8020 21.7570 284° West 458 527 34,000  Level FlightAware
07:53AM 58.8250 21.5830 284° West 460 529 34,000  Level FlightAware
07:54AM 58.8460 21.4190 284° West 461 531 34,000  Level FlightAware
07:54AM 58.8670 21.2740 286° West 462 532 34,000  Level FlightAware
07:55AM 58.8970 21.1040 289° West 462 532 34,000  Level FlightAware
07:56AM 58.9240 20.9470 288° West 462 532 34,000  Level FlightAware
07:56AM 58.9490 20.7920 287° West 463 533 34,000  Level FlightAware
07:57AM 58.9790 20.6120 288° West 462 532 34,000  Level FlightAware
07:58AM 59.0030 20.4590 287° West 460 529 34,000  Level FlightAware
07:58AM 59.0310 20.2880 288° West 459 528 34,000  Level FlightAware
07:59AM 59.0570 20.1240 287° West 458 527 34,000  Level FlightAware
08:00AM 59.0810 19.9690 287° West 455 524 34,000  Level FlightAware
08:00AM 59.1070 19.8040 287° West 455 524 34,000  Level FlightAware
08:01AM 59.1330 19.6320 286° West 454 522 34,000  Level FlightAware
08:02AM 59.1650 19.4240 287° West 453 521 34,000  Level FlightAware
08:03AM 59.1880 19.2710 286° West 452 520 34,000  Level FlightAware
08:04AM 59.2160 19.0840 286° West 449 517 34,000  Level FlightAware
08:04AM 59.2400 18.9240 286° West 451 519 34,000  Level FlightAware
08:05AM 59.2640 18.7560 286° West 452 520 34,000  Level FlightAware
08:06AM 59.2860 18.6020 286° West 450 518 34,000  Level FlightAware
08:06AM 59.3120 18.4240 286° West 450 518 34,000  Level FlightAware
08:07AM 59.3340 18.2690 286° West 451 519 34,000  Level FlightAware
08:08AM 59.3580 18.0980 285° West 452 520 34,000  Level FlightAware
08:08AM 59.3810 17.9330 285° West 454 522 34,000  Level FlightAware
08:09AM 59.4030 17.7730 285° West 455 524 34,000  Level FlightAware
08:10AM 59.4250 17.6090 285° West 458 527 34,000  Level FlightAware
08:10AM 59.4440 17.4670 285° West 460 529 34,000  Level FlightAware
08:11AM 59.4660 17.3020 285° West 461 531 34,000  Level FlightAware
08:12AM 59.4890 17.1270 285° West 461 531 34,000  Level FlightAware
08:12AM 59.5080 16.9860 285° West 462 532 34,000  Level FlightAware
08:13AM 59.5300 16.8130 284° West 462 532 34,000  Level FlightAware
08:14AM 59.5510 16.6490 284° West 462 532 34,000  Level FlightAware
08:14AM 59.5730 16.4740 284° West 464 534 34,000  Level FlightAware
08:15AM 59.5900 16.3400 284° West 465 535 34,000  Level FlightAware
08:16AM 59.6090 16.1830 284° West 468 539 34,000  Level FlightAware
08:16AM 59.6250 16.0530 284° West 469 540 34,000  Level FlightAware
08:17AM 59.6450 15.8900 284° West 469 540 34,000  Level FlightAware
08:18AM 59.6680 15.7020 284° West 469 540 34,000  Level FlightAware
08:18AM 59.6880 15.5310 283° West 471 542 34,000  Level FlightAware
08:19AM 59.7090 15.3460 283° West 474 545 34,000  Level FlightAware
08:20AM 59.7290 15.1740 283° West 478 550 34,000  Level FlightAware
08:20AM 59.7500 14.9870 283° West 481 554 34,000  Level FlightAware
08:21AM 59.7700 14.8130 283° West 483 556 34,000  Level FlightAware
08:22AM 59.7860 14.6640 282° West 484 557 34,000  Level FlightAware
08:22AM 59.8160 14.4590 286° West 486 559 34,000  Level FlightAware
08:23AM 59.8440 14.2820 288° West 488 562 34,000  Level FlightAware
08:24AM 59.8670 14.1320 287° West 488 562 34,000  Level FlightAware
08:24AM 59.8970 13.9360 287° West 490 564 34,000  Level FlightAware
08:25AM 59.9230 13.7670 287° West 492 566 34,000  Level FlightAware
08:26AM 59.9490 13.5910 287° West 495 570 34,000  Level FlightAware
08:26AM 59.9720 13.4360 287° West 497 572 34,000  Level FlightAware
08:27AM 60.0010 13.2400 287° West 498 573 34,000  Level FlightAware
08:28AM 60.0260 13.0710 287° West 496 571 34,000  Level FlightAware
08:29AM 60.0550 12.8680 286° West 495 570 34,000  Level FlightAware
08:29AM 60.0800 12.6940 286° West 494 568 34,000  Level FlightAware
08:30AM 60.1050 12.5140 286° West 493 567 34,000  Level FlightAware
08:30AM 60.1270 12.3550 286° West 493 567 34,000  Level FlightAware
08:31AM 60.1540 12.1590 286° West 491 565 34,000  Level FlightAware
08:32AM 60.1780 11.9840 285° West 490 564 34,000  Level FlightAware
08:33AM 60.2040 11.7930 285° West 487 560 34,000  Level FlightAware
08:33AM 60.2270 11.6200 285° West 483 556 34,000  Level FlightAware
08:34AM 60.2520 11.4300 285° West 480 552 34,000  Level FlightAware
08:35AM 60.2740 11.2580 285° West 479 551 34,000  Level FlightAware
08:35AM 60.2980 11.0720 285° West 479 551 34,000  Level FlightAware
08:36AM 60.3200 10.9020 285° West 476 548 34,000  Level FlightAware
08:37AM 60.3400 10.7380 284° West 475 547 34,000  Level FlightAware
08:37AM 60.3640 10.5420 284° West 476 548 34,000  Level FlightAware
08:38AM 60.3880 10.3520 284° West 474 545 34,000  Level FlightAware
08:39AM 60.4080 10.1800 283° West 474 545 34,000  Level FlightAware
08:40AM 60.4290 10.0090 284° West 473 544 34,000  Level FlightAware
08:40AM 60.4490 9.8380 283° West 473 544 34,000  Level FlightAware
08:41AM 60.4690 9.6640 283° West 473 544 34,000  Level FlightAware
08:42AM 60.4890 9.4930 283° West 473 544 34,000  Level FlightAware
08:42AM 60.5120 9.2930 283° West 471 542 34,000  Level FlightAware
08:43AM 60.5300 9.1250 282° West 472 543 34,000  Level FlightAware
08:44AM 60.5520 8.9300 283° West 473 544 34,000  Level FlightAware
08:44AM 60.5700 8.7610 282° West 471 542 34,000  Level FlightAware
08:45AM 60.5870 8.6030 282° West 472 543 34,000  Level FlightAware
08:46AM 60.6060 8.4280 283° West 472 543 34,000  Level FlightAware
08:46AM 60.6250 8.2390 282° West 471 542 34,000  Level FlightAware
08:47AM 60.6420 8.0810 282° West 470 541 34,000  Level FlightAware
08:48AM 60.6590 7.9090 281° West 470 541 34,000  Level FlightAware
08:48AM 60.6780 7.7210 282° West 471 542 34,000  Level FlightAware
08:49AM 60.6920 7.5820 282° West 471 542 34,000  Level FlightAware
08:50AM 60.7110 7.3900 282° West 470 541 34,000  Level FlightAware
08:50AM 60.7270 7.2200 281° West 471 542 34,000  Level FlightAware
08:51AM 60.7470 7.0150 281° West 470 541 34,000  Level FlightAware
08:52AM 60.7620 6.8500 281° West 471 542 34,000  Level FlightAware
08:53AM 60.7850 6.6020 281° West 471 542 34,000  Level FlightAware
08:53AM 60.8000 6.4340 280° West 471 542 34,000  Level FlightAware
08:54AM 60.8140 6.2770 280° West 470 541 34,000  Level FlightAware
08:55AM 60.8310 6.0860 280° West 470 541 34,000  Level FlightAware
08:55AM 60.8470 5.8910 280° West 471 542 34,000  Level FlightAware
08:56AM 60.8580 5.7600 280° West 470 541 34,000  Level FlightAware
08:57AM 60.8760 5.5510 280° West 470 541 34,000  Level FlightAware
08:57AM 60.8900 5.3730 279° West 470 541 34,000  Level FlightAware
08:58AM 60.9030 5.2200 280° West 470 541 34,000  Level FlightAware
08:59AM 60.9170 5.0450 279° West 470 541 34,000  Level FlightAware
08:59AM 60.9320 4.8480 279° West 470 541 34,000  Level FlightAware
09:00AM 60.9450 4.6700 279° West 472 543 34,000  Level FlightAware
09:01AM 60.9580 4.4960 279° West 471 542 34,000  Level FlightAware
09:01AM 60.9730 4.2960 279° West 471 542 34,000  Level FlightAware
09:02AM 60.9860 4.1130 278° West 469 540 34,000  Level FlightAware
09:03AM 60.9980 3.9400 278° West 469 540 34,000  Level FlightAware
09:03AM 61.0110 3.7600 279° West 470 541 34,000  Level FlightAware
09:04AM 61.0270 3.5210 278° West 471 542 34,000  Level FlightAware
09:05AM 61.0390 3.3480 278° West 471 542 34,000  Level FlightAware
09:06AM 61.0670 3.1550 287° West 476 548 34,000  Level FlightAware
09:06AM 61.1010 2.9910 293° West 476 548 34,000  Level FlightAware
09:07AM 61.1340 2.8290 293° West 477 549 34,000  Level FlightAware
09:08AM 61.1710 2.6490 293° West 478 550 34,000  Level FlightAware
09:08AM 61.2010 2.4960 292° West 479 551 34,000  Level FlightAware
09:09AM 61.2390 2.3060 293° West 478 550 34,000  Level FlightAware
09:10AM 61.2710 2.1440 292° West 476 548 34,000  Level FlightAware
09:10AM 61.3030 1.9810 292° West 475 547 34,000  Level FlightAware
09:11AM 61.3550 1.7150 292° West 473 544 34,000  Level FlightAware
09:13AM 61.4090 1.4360 292° West 473 544 34,000  Level FlightAware
09:13AM 61.4350 1.2980 292° West 473 544 34,000  Level FlightAware
09:14AM 61.4850 1.0240 291° West 472 543 34,000  Level FlightAware
09:15AM 61.5170 0.8500 291° West 472 543 34,000  Level FlightAware
09:16AM 61.5410 0.7190 291° West 472 543 34,000  Level FlightAware
09:18AM 61.5612 0.2690 276° West  Level Estimated
09:18AM 61.6570 0.0800 276° West 474 545 34,000  Level FlightAware
09:19AM 61.6850 -0.0770 291° West 475 547 34,000  Level FlightAware
09:19AM 61.7220 -0.2880 290° West 478 550 34,000  Level FlightAware
09:21AM 61.7840 -0.6510 290° West 483 556 34,000  Level FlightAware
09:22AM 61.8300 -0.9230 290° West 486 559 34,000  Level FlightAware
09:22AM 61.8570 -1.0870 289° West 487 560 34,000  Level FlightAware
09:23AM 61.8930 -1.3010 290° West 489 563 34,000  Level FlightAware
09:24AM 61.9220 -1.4780 289° West 489 563 34,000  Level FlightAware
09:25AM 61.9530 -1.6700 289° West 490 564 34,000  Level FlightAware
09:25AM 61.9790 -1.8350 289° West 490 564 34,000  Level FlightAware
09:26AM 62.0210 -2.0980 289° West 492 566 34,000  Level FlightAware
09:27AM 62.0470 -2.2660 288° West 492 566 34,000  Level FlightAware
09:27AM 62.0810 -2.4820 289° West 492 566 34,000  Level FlightAware
09:28AM 62.1050 -2.6440 288° West 492 566 34,000  Level FlightAware
09:29AM 62.1340 -2.8350 288° West 492 566 34,000  Level FlightAware
09:29AM 62.1610 -3.0130 288° West 492 566 34,000  Level FlightAware
09:30AM 62.1910 -3.2180 287° West 492 566 34,000  Level FlightAware
09:31AM 62.2210 -3.4200 288° West 492 566 34,000  Level FlightAware
09:31AM 62.2480 -3.6050 287° West 491 565 34,000  Level FlightAware
09:32AM 62.2770 -3.8110 287° West 491 565 34,000  Level FlightAware
09:33AM 62.3010 -3.9800 287° West 491 565 34,000  Level FlightAware
09:33AM 62.3270 -4.1660 287° West 492 566 34,000  Level FlightAware
09:34AM 62.3560 -4.3710 287° West 493 567 34,000  Level FlightAware
09:35AM 62.3790 -4.5440 286° West 492 566 34,000  Level FlightAware
09:35AM 62.4050 -4.7320 287° West 493 567 34,000  Level FlightAware
09:36AM 62.4300 -4.9200 286° West 493 567 34,000  Level FlightAware
09:37AM 62.4540 -5.1030 286° West 492 566 34,000  Level FlightAware
09:37AM 62.4810 -5.3130 286° West 493 567 34,000  Level FlightAware
09:38AM 62.5080 -5.5210 286° West 493 567 34,000  Level FlightAware
09:39AM 62.5320 -5.7110 285° West 494 568 34,000  Level FlightAware
09:40AM 62.5550 -5.8950 285° West 496 571 34,000  Level FlightAware
09:40AM 62.5790 -6.0860 285° West 496 571 34,000  Level FlightAware
09:41AM 62.6030 -6.2790 285° West 496 571 34,000  Level FlightAware
09:42AM 62.6270 -6.4800 285° West 496 571 34,000  Level FlightAware
09:42AM 62.6470 -6.6460 285° West 495 570 34,000  Level FlightAware
09:43AM 62.6710 -6.8520 284° West 495 570 34,000  Level FlightAware
09:44AM 62.6950 -7.0560 284° West 495 570 34,000  Level FlightAware
09:44AM 62.7150 -7.2320 284° West 496 571 34,000  Level FlightAware
09:45AM 62.7370 -7.4260 284° West 496 571 34,000  Level FlightAware
09:46AM 62.7600 -7.6370 283° West 495 570 34,000  Level FlightAware
09:46AM 62.7810 -7.8280 284° West 494 568 34,000  Level FlightAware
09:47AM 62.7980 -7.9860 283° West 494 568 34,000  Level FlightAware
09:48AM 62.8190 -8.1850 283° West 494 568 34,000  Level FlightAware
09:49AM 62.8530 -8.5070 283° West 493 567 34,000  Level FlightAware
09:49AM 62.8750 -8.7200 283° West 494 568 34,000  Level FlightAware
09:50AM 62.9010 -8.9680 283° West 494 568 34,000  Level FlightAware
09:51AM 62.9200 -9.1570 283° West 494 568 34,000  Level FlightAware
09:52AM 62.9410 -9.3690 282° West 493 567 34,000  Level FlightAware
09:52AM 62.9580 -9.5460 282° West 493 567 34,000  Level FlightAware
09:53AM 62.9790 -9.7690 282° West 493 567 34,000  Level FlightAware
09:54AM 62.9990 -9.9830 282° West 494 568 34,000  Level FlightAware
09:54AM 63.0230 -10.1670 286° West 493 567 34,000  Level FlightAware
09:55AM 63.0530 -10.3790 287° West 493 567 34,000  Level FlightAware
09:56AM 63.0820 -10.5960 287° West 491 565 34,000  Level FlightAware
09:56AM 63.1070 -10.7830 287° West 489 563 34,000  Level FlightAware
09:57AM 63.1360 -10.9990 287° West 488 562 34,000  Level FlightAware
09:58AM 63.1580 -11.1700 286° West 489 563 34,000  Level FlightAware
09:59AM 63.1880 -11.4020 286° West 487 560 34,000  Level FlightAware
09:59AM 63.2120 -11.5960 285° West 486 559 34,000  Level FlightAware
10:00AM 63.2390 -11.8070 286° West 485 558 34,000  Level FlightAware
10:01AM 63.2630 -12.0040 285° West 486 559 34,000  Level FlightAware
10:01AM 63.2870 -12.1970 286° West 486 559 34,000  Level FlightAware
10:02AM 63.3120 -12.4030 285° West 486 559 34,000  Level FlightAware
10:03AM 63.3350 -12.6000 285° West 486 559 34,000  Level FlightAware
10:03AM 63.3580 -12.7950 285° West 485 558 34,000  Level FlightAware
10:04AM 63.3830 -13.0070 285° West 485 558 34,000  Level FlightAware
10:05AM 63.4050 -13.2000 284° West 483 556 34,000  Level FlightAware
10:05AM 63.4240 -13.3720 284° West 483 556 34,000  Level FlightAware
10:06AM 63.4490 -13.5950 284° West 483 556 34,000  Level FlightAware
10:07AM 63.4680 -13.7700 284° West 483 556 34,000  Level FlightAware
10:07AM 63.4870 -13.9440 284° West 484 557 34,000  Level FlightAware
10:08AM 63.5090 -14.1600 283° West 482 555 34,000  Level FlightAware
10:09AM 63.5260 -14.3620 281° West 482 555 34,000  Level FlightAware
10:10AM 63.5440 -14.5790 281° West 481 554 34,000  Level FlightAware
10:10AM 63.5600 -14.7690 281° West 480 552 34,000  Level FlightAware
10:11AM 63.5780 -14.9900 280° West 479 551 34,000  Level FlightAware
10:12AM 63.5930 -15.1740 280° West 480 552 34,000  Level FlightAware
10:12AM 63.6070 -15.3450 281° West 481 554 34,000  Level FlightAware
10:13AM 63.6200 -15.5140 280° West 482 555 34,000  Level FlightAware
10:13AM 63.6340 -15.6960 280° West 483 556 34,000  Level FlightAware
10:14AM 63.6470 -15.8690 280° West 482 555 34,000  Level FlightAware
10:15AM 63.6620 -16.0670 280° West 481 554 34,000  Level FlightAware
10:15AM 63.6750 -16.2500 279° West 481 554 34,000  Level FlightAware
10:16AM 63.6880 -16.4360 279° West 481 554 34,000  Level FlightAware
10:17AM 63.7040 -16.6660 279° West 480 552 34,000  Level FlightAware
10:17AM 63.7180 -16.8660 279° West 481 554 34,000  Level FlightAware
10:18AM 63.7310 -17.0650 278° West 482 555 34,000  Level FlightAware
10:19AM 63.7460 -17.2920 279° West 482 555 34,000  Level FlightAware
10:19AM 63.7580 -17.4830 278° West 482 555 34,000  Level FlightAware
10:20AM 63.7680 -17.6310 279° West 483 556 34,000  Level FlightAware
10:21AM 63.7820 -17.8620 278° West 483 556 34,000  Level FlightAware
10:21AM 63.7940 -18.0730 277° West 481 554 34,000  Level FlightAware
10:22AM 63.8080 -18.3090 278° West 472 543 34,000  Level FlightAware
10:23AM 63.8190 -18.4940 278° West 468 539 34,000  Level FlightAware
10:23AM 63.8290 -18.6860 277° West 468 539 34,000  Level FlightAware
10:24AM 63.8410 -18.9000 277° West 470 541 34,000  Level FlightAware
10:25AM 63.8510 -19.1050 276° West 471 542 34,000  Level FlightAware
10:26AM 63.8620 -19.3140 277° West 470 541 34,000  Level FlightAware
10:26AM 63.8700 -19.4860 276° West 470 541 34,000  Level FlightAware
10:27AM 63.8810 -19.7070 277° West 469 540 34,000  Level FlightAware
10:28AM 63.8900 -19.8970 276° West 468 539 34,000  Level FlightAware
10:28AM 63.8990 -20.0900 276° West 468 539 34,000  Level FlightAware
10:29AM 63.9070 -20.2840 275° West 468 539 34,000  Level FlightAware
10:30AM 63.9160 -20.4870 276° West 468 539 34,000  Level FlightAware
10:30AM 63.9250 -20.7160 275° West 470 541 34,000  Level FlightAware
10:31AM 63.9310 -20.8660 275° West 471 542 34,000  Level FlightAware
10:32AM 63.9400 -21.0870 275° West 472 543 34,000  Level FlightAware
10:32AM 63.9470 -21.2890 275° West 472 543 34,000  Level FlightAware
10:33AM 63.9540 -21.4860 275° West 472 543 34,000  Level FlightAware
10:34AM 63.9610 -21.6900 275° West 471 542 34,000  Level FlightAware
10:34AM 63.9680 -21.9060 274° West 471 542 34,000  Level FlightAware
10:35AM 63.9730 -22.0730 274° West 472 543 34,000  Level FlightAware
10:36AM 63.9800 -22.2840 274° West 473 544 34,000  Level FlightAware
10:36AM 63.9860 -22.4910 274° West 472 543 34,000  Level FlightAware
10:37AM 63.9910 -22.6830 273° West 471 542 34,000  Level FlightAware
10:38AM 63.9970 -22.9170 273° West 478 550 34,000  Level FlightAware
10:38AM 64.0010 -23.0990 273° West 481 554 34,000  Level FlightAware
10:39AM 64.0060 -23.3240 273° West 479 551 34,000  Level FlightAware
10:40AM 64.0100 -23.5100 273° West 478 550 34,000  Level FlightAware
10:40AM 64.0140 -23.7060 273° West 478 550 34,000  Level FlightAware
10:41AM 64.0180 -23.9100 273° West 479 551 34,000  Level FlightAware
10:42AM 64.0220 -24.1120 273° West 478 550 34,000  Level FlightAware
10:42AM 64.0250 -24.3220 272° West 478 550 34,000  Level FlightAware
10:43AM 64.0280 -24.5240 272° West 478 550 34,000  Level FlightAware
10:44AM 64.0310 -24.7240 272° West 476 548 34,000  Level FlightAware
10:44AM 64.0330 -24.9430 271° West 475 547 34,000  Level FlightAware
10:45AM 64.0350 -25.1510 271° West 474 545 34,000  Level FlightAware
10:46AM 64.0370 -25.2940 272° West 474 545 34,000  Level FlightAware
10:46AM 64.0380 -25.4920 271° West 472 543 34,000  Level FlightAware
10:47AM 64.0400 -25.7210 271° West 471 542 34,000  Level FlightAware
10:48AM 64.0410 -25.9260 271° West 471 542 34,000  Level FlightAware
10:48AM 64.0410 -26.1340 270° West 470 541 34,000  Level FlightAware
10:49AM 64.0420 -26.3230 271° West 468 539 34,000  Level FlightAware
10:50AM 64.0420 -26.5410 270° West 468 539 34,000  Level FlightAware
10:50AM 64.0420 -26.7230 270° West 468 539 34,000 -480 Level FlightAware
10:51AM 64.0410 -26.9540 270° West 468 539 33,400 -720 Descending FlightAware
10:52AM 64.0400 -27.1580 269° West 468 539 33,000 -660 Descending FlightAware
10:53AM 64.0390 -27.3650 269° West 462 532 32,500 -660 Descending FlightAware
10:53AM 64.0380 -27.5870 270° West 458 527 32,100 -360 Descending FlightAware
10:54AM 64.0360 -27.7790 269° West 456 525 32,000 -120 Descending FlightAware
10:55AM 64.0350 -27.9680 269° West 457 526 32,000  Level FlightAware
10:55AM 64.0330 -28.1620 269° West 456 525 32,000  Level FlightAware
10:56AM 64.0300 -28.3630 268° West 456 525 32,000  Level FlightAware
10:57AM 64.0270 -28.5820 268° West 456 525 32,000  Level FlightAware
10:58AM 64.0240 -28.7940 268° West 455 524 32,000  Level FlightAware
10:58AM 64.0220 -28.9540 268° West 455 524 32,000  Level FlightAware
10:59AM 64.0190 -29.1280 268° West 454 522 32,000  Level FlightAware
10:59AM 64.0150 -29.3270 267° West 455 524 32,000  Level FlightAware
11:00AM 64.0100 -29.5590 267° West 454 522 32,000  Level FlightAware
11:01AM 64.0060 -29.7490 267° West 453 521 32,000  Level FlightAware
11:02AM 64.0060 -29.9150 270° West 451 519 32,000  Level FlightAware
11:02AM 64.0200 -30.1290 279° West 458 527 32,000  Level FlightAware
11:03AM 64.0450 -30.3230 286° West 463 533 32,000  Level FlightAware
11:04AM 64.0700 -30.5100 287° West 463 533 32,000  Level FlightAware
11:04AM 64.0970 -30.7140 287° West 461 531 32,000  Level FlightAware
11:05AM 64.1170 -30.8630 287° West 462 532 32,000  Level FlightAware
11:06AM 64.1390 -31.0300 287° West 462 532 32,000  Level FlightAware
11:06AM 64.1680 -31.2560 287° West 461 531 32,000  Level FlightAware
11:07AM 64.1940 -31.4590 286° West 462 532 32,000  Level FlightAware
11:08AM 64.2210 -31.6760 286° West 462 532 32,000  Level FlightAware
11:09AM 64.2460 -31.8730 286° West 462 532 32,000  Level FlightAware
11:09AM 64.2640 -32.0210 286° West 462 532 32,000  Level FlightAware
11:10AM 64.2880 -32.2140 286° West 462 532 32,000  Level FlightAware
11:11AM 64.3060 -32.3590 286° West 462 532 32,000  Level FlightAware
11:11AM 64.3250 -32.5130 286° West 462 532 32,000  Level FlightAware
11:12AM 64.3490 -32.7020 286° West 462 532 32,000  Level FlightAware
11:13AM 64.3670 -32.8510 286° West 462 532 32,000  Level FlightAware
11:14AM 64.3910 -33.0450 286° West 462 532 32,000  Level FlightAware
11:14AM 64.4100 -33.1990 286° West 462 532 32,000  Level FlightAware
11:15AM 64.4340 -33.3930 286° West 462 532 32,000  Level FlightAware
11:16AM 64.4530 -33.5430 286° West 462 532 32,000  Level FlightAware
11:16AM 64.4770 -33.7370 286° West 462 532 32,000  Level FlightAware
11:17AM 64.4950 -33.8830 286° West 462 532 32,000  Level FlightAware
11:20AM 64.3566 -34.4556 241° Southwest  Level Estimated
11:21AM 64.3006 -34.6831 240° Southwest  Level Estimated
11:22AM 64.2396 -34.9284 240° Southwest  Level Estimated
11:23AM 64.1782 -35.1726 240° Southwest  Level Estimated
11:24AM 64.1163 -35.4157 240° Southwest  Level Estimated
11:25AM 64.0541 -35.6577 240° Southwest  Level Estimated
11:26AM 63.9915 -35.8986 239° Southwest  Level Estimated
11:27AM 63.9284 -36.1385 239° Southwest  Level Estimated
11:28AM 63.8650 -36.3773 239° Southwest  Level Estimated
11:29AM 63.8011 -36.6150 239° Southwest  Level Estimated
11:30AM 63.7369 -36.8516 239° Southwest  Level Estimated
11:31AM 63.6723 -37.0872 238° Southwest  Level Estimated
11:32AM 63.6073 -37.3216 238° Southwest  Level Estimated
11:33AM 63.5420 -37.5550 238° Southwest  Level Estimated
11:34AM 63.4762 -37.7874 238° Southwest  Level Estimated
11:35AM 63.4101 -38.0187 238° Southwest  Level Estimated
11:36AM 63.3436 -38.2489 237° Southwest  Level Estimated
11:37AM 63.2767 -38.4780 237° Southwest  Level Estimated
11:38AM 63.2095 -38.7061 237° Southwest  Level Estimated
11:39AM 63.1419 -38.9331 237° Southwest  Level Estimated
11:40AM 63.0740 -39.1590 236° Southwest  Level Estimated
11:41AM 63.0057 -39.3839 236° Southwest  Level Estimated
11:42AM 62.9370 -39.6077 236° Southwest  Level Estimated
11:43AM 62.8680 -39.8305 236° Southwest  Level Estimated
11:44AM 62.7986 -40.0523 236° Southwest  Level Estimated
11:45AM 62.7289 -40.2730 235° Southwest  Level Estimated
11:46AM 62.6589 -40.4926 235° Southwest  Level Estimated
11:47AM 62.5885 -40.7113 235° Southwest  Level Estimated
11:48AM 62.5177 -40.9289 235° Southwest  Level Estimated
11:49AM 62.4466 -41.1454 235° Southwest  Level Estimated
11:50AM 62.3752 -41.3609 235° Southwest  Level Estimated
11:51AM 62.3035 -41.5754 234° Southwest  Level Estimated
11:52AM 62.2314 -41.7889 234° Southwest  Level Estimated
11:53AM 62.1590 -42.0014 234° Southwest  Level Estimated
11:54AM 62.0863 -42.2128 234° Southwest  Level Estimated
11:55AM 62.0132 -42.4232 234° Southwest  Level Estimated
11:56AM 61.9399 -42.6326 233° Southwest  Level Estimated
11:57AM 61.8662 -42.8410 233° Southwest  Level Estimated
11:58AM 61.7922 -43.0484 233° Southwest  Level Estimated
11:59AM 61.7179 -43.2548 233° Southwest  Level Estimated
12:00PM 61.6433 -43.4603 233° Southwest  Level Estimated
12:01PM 61.5684 -43.6647 232° Southwest  Level Estimated
12:02PM 61.4932 -43.8681 232° Southwest  Level Estimated
12:03PM 61.4176 -44.0706 232° Southwest  Level Estimated
12:04PM 61.3418 -44.2720 232° Southwest  Level Estimated
12:05PM 61.2657 -44.4725 232° Southwest  Level Estimated
12:06PM 61.1893 -44.6721 232° Southwest  Level Estimated
12:07PM 61.1126 -44.8706 231° Southwest  Level Estimated
12:08PM 61.0356 -45.0682 231° Southwest  Level Estimated
12:09PM 60.9583 -45.2649 231° Southwest  Level Estimated
12:10PM 60.8808 -45.4605 231° Southwest  Level Estimated
12:11PM 60.8029 -45.6553 231° Southwest  Level Estimated
12:12PM 60.7248 -45.8491 231° Southwest  Level Estimated
12:13PM 60.6464 -46.0419 230° Southwest  Level Estimated
12:14PM 60.5677 -46.2338 230° Southwest  Level Estimated
12:15PM 60.4887 -46.4248 230° Southwest  Level Estimated
12:15PM 63.9590 -50.2720 230° Southwest 443 510 33,000  Level FlightAware
12:15PM 63.9280 -50.4660 250° West 443 510 33,000  Level FlightAware
12:16PM 60.4095 -46.6148 230° Southwest  Level Estimated
12:16PM 63.9000 -50.6400 250° West 445 512 33,000  Level FlightAware
12:17PM 63.8730 -50.8140 251° West 447 514 33,000  Level FlightAware
12:18PM 63.8410 -51.0090 250° West 448 516 33,000  Level FlightAware
12:18PM 63.8100 -51.1990 250° West 448 516 33,000  Level FlightAware
12:19PM 63.7800 -51.3850 250° West 449 517 33,000  Level FlightAware
12:20PM 63.7480 -51.5770 249° West 450 518 33,000  Level FlightAware
12:20PM 63.7210 -51.7360 249° West 452 520 33,000  Level FlightAware
12:21PM 63.6850 -51.9480 249° West 455 524 33,000  Level FlightAware
12:22PM 63.6600 -52.0990 250° West 454 522 33,000  Level FlightAware
12:22PM 63.6220 -52.3160 249° West 455 524 33,000  Level FlightAware
12:23PM 63.5920 -52.4900 249° West 455 524 33,000  Level FlightAware
12:24PM 63.5610 -52.6670 249° West 457 526 33,000  Level FlightAware
12:25PM 63.5270 -52.8580 248° West 459 528 33,000  Level FlightAware
12:25PM 63.4930 -53.0460 248° West 460 529 33,000  Level FlightAware
12:26PM 63.4640 -53.2050 248° West 460 529 33,000  Level FlightAware
12:27PM 63.4260 -53.4170 248° West 462 532 33,000  Level FlightAware
12:27PM 63.3930 -53.5930 247° West 464 534 33,000  Level FlightAware
12:28PM 63.3700 -53.7160 247° West 463 533 33,000  Level FlightAware
12:28PM 63.3420 -53.8650 247° West 462 532 33,000  Level FlightAware
12:29PM 63.3060 -54.0570 247° West 463 533 33,000  Level FlightAware
12:30PM 63.2740 -54.2250 247° West 462 532 33,000  Level FlightAware
12:30PM 63.2420 -54.3870 246° West 463 533 33,000  Level FlightAware
12:31PM 63.2070 -54.5640 246° West 463 533 33,000  Level FlightAware
12:32PM 63.1790 -54.7040 246° West 463 533 33,000  Level FlightAware
12:33PM 63.1440 -54.8770 246° West 463 533 33,000  Level FlightAware
12:33PM 63.1170 -55.0100 246° West 463 533 33,000  Level FlightAware
12:34PM 63.0900 -55.1420 246° West 463 533 33,000  Level FlightAware
12:34PM 63.0620 -55.2820 246° West 463 533 33,000  Level FlightAware
12:35PM 63.0350 -55.4180 246° West 463 533 33,000  Level FlightAware
12:36PM 62.9990 -55.5940 246° West 463 533 33,000  Level FlightAware
12:36PM 62.9730 -55.7220 246° West 463 533 33,000  Level FlightAware
12:37PM 62.9390 -55.8900 246° West 463 533 33,000  Level FlightAware
12:38PM 62.9040 -56.0650 246° West 463 533 33,000  Level FlightAware
12:39PM 62.8760 -56.2000 246° West 463 533 33,000  Level FlightAware
12:40PM 62.8320 -56.4190 246° West 463 533 33,000  Level FlightAware
12:40PM 62.7167 -56.9500 246° West 460 529 33,000  Level Gander Center
12:41PM 62.7000 -57.1333 259° West 470 541 33,000  Level Gander Center
12:42PM 62.6333 -57.3833 240° Southwest 490 564 33,000  Level Gander Center
12:43PM 62.5833 -57.6500 248° West 490 564 33,000  Level Gander Center
12:44PM 62.5167 -57.9000 240° Southwest 490 564 33,000  Level Gander Center
12:45PM 62.4333 -58.1667 236° Southwest 490 564 33,100 480 Climbing Gander Center
12:46PM 62.4000 -58.4167 254° West 490 564 34,000 480 Climbing Gander Center
12:47PM 62.3333 -58.5667 226° Southwest 480 552 34,000  Level Montreal Center
12:48PM 62.2833 -58.8167 247° West 480 552 34,000  Level Montreal Center
12:48PM 62.2333 -59.0333 244° Southwest 480 552 34,000  Level Gander Center
12:49PM 62.2167 -59.1833 257° West 470 541 34,000  Level Gander Center
12:50PM 62.1500 -59.4333 240° Southwest 480 552 34,000  Level Gander Center
12:51PM 62.0833 -59.6833 240° Southwest 480 552 34,000  Level Gander Center
12:52PM 62.0167 -59.9333 240° Southwest 480 552 34,000  Level Gander Center
12:53PM 61.9167 -60.1167 221° Southwest 470 541 34,000  Level Gander Center
12:54PM 61.8500 -60.2167 215° Southwest 470 541 34,000  Level Montreal Center
12:55PM 61.7500 -60.4167 223° Southwest 470 541 34,000  Level Montreal Center
12:56PM 61.6500 -60.5833 218° Southwest 470 541 34,000  Level Montreal Center
12:57PM 61.5500 -60.7667 221° Southwest 470 541 34,000  Level Montreal Center
12:58PM 61.4500 -60.9500 221° Southwest 470 541 34,000  Level Montreal Center
12:59PM 61.3500 -61.1500 224° Southwest 470 541 34,000  Level Montreal Center
01:00PM 61.2667 -61.3000 221° Southwest 470 541 34,000  Level Montreal Center
01:00PM 61.2000 -61.4500 227° Southwest 470 541 34,000  Level Gander Center
01:01PM 61.1000 -61.6333 222° Southwest 460 529 34,000  Level Gander Center
01:02PM 61.0000 -61.8000 219° Southwest 470 541 34,000  Level Gander Center
01:03PM 60.9500 -61.9000 224° Southwest 460 529 34,000  Level Gander Center
01:04PM 60.8667 -62.0000 210° Southwest 470 541 34,000  Level Montreal Center
01:04PM 60.8167 -62.1333 232° Southwest 470 541 34,000  Level Gander Center
01:06PM 60.6667 -62.4333 224° Southwest 470 541 34,000  Level Gander Center
01:07PM 60.5667 -62.5667 213° Southwest 460 529 34,000  Level Montreal Center
01:08PM 60.4833 -62.7500 227° Southwest 460 529 34,000  Level Montreal Center
01:08PM 60.4333 -62.9000 236° Southwest 470 541 34,000  Level Gander Center
01:09PM 60.3833 -63.0333 233° Southwest 470 541 34,000  Level Gander Center
01:10PM 60.3000 -63.1333 211° Southwest 460 529 34,000  Level Montreal Center
01:11PM 60.2167 -63.3000 225° Southwest 470 541 34,000  Level Montreal Center
01:12PM 60.1167 -63.5000 225° Southwest 470 541 34,000  Level Montreal Center
01:13PM 60.0333 -63.6833 228° Southwest 470 541 34,000  Level Montreal Center
01:14PM 59.9500 -63.8500 225° Southwest 470 541 34,000  Level Montreal Center
01:15PM 59.8667 -64.0500 230° Southwest 460 529 34,000  Level Montreal Center
01:15PM 59.8000 -64.2000 229° Southwest 470 541 34,000  Level Gander Center
01:16PM 59.7167 -64.3833 228° Southwest 470 541 34,000  Level Gander Center
01:17PM 59.6667 -64.4167 199° South 460 529 34,000  Level Montreal Center
01:18PM 59.5667 -64.5833 220° Southwest 470 541 34,000  Level Montreal Center
01:19PM 59.4833 -64.7833 231° Southwest 460 529 34,000  Level Montreal Center
01:20PM 59.3833 -64.9500 220° Southwest 470 541 34,000  Level Montreal Center
01:21PM 59.3000 -65.1333 228° Southwest 460 529 34,000  Level Montreal Center
01:21PM 59.2500 -65.2500 230° Southwest 460 529 34,000  Level Gander Center
01:22PM 59.1833 -65.3833 226° Southwest 460 529 34,000  Level Gander Center
01:23PM 59.0833 -65.5667 223° Southwest 460 529 34,000  Level Gander Center
01:24PM 59.0000 -65.7167 223° Southwest 460 529 34,000  Level Gander Center
01:25PM 58.9000 -65.9000 223° Southwest 460 529 34,000  Level Gander Center
01:26PM 58.8333 -65.9667 207° Southwest 460 529 34,000  Level Montreal Center
01:27PM 58.7500 -66.1500 229° Southwest 460 529 34,000  Level Montreal Center
01:28PM 58.6333 -66.3167 217° Southwest 450 518 34,000  Level Montreal Center
01:29PM 58.5500 -66.4667 223° Southwest 450 518 34,000  Level Montreal Center
01:30PM 58.4500 -66.6167 218° Southwest 450 518 34,000  Level Montreal Center
01:31PM 58.3667 -66.8000 229° Southwest 450 518 34,000  Level Montreal Center
01:32PM 58.2833 -66.9500 223° Southwest 440 506 34,000  Level Montreal Center
01:33PM 58.1833 -67.1167 221° Southwest 440 506 34,000  Level Montreal Center
01:34PM 58.1000 -67.2667 224° Southwest 440 506 34,000  Level Montreal Center
01:35PM 58.0000 -67.4333 221° Southwest 440 506 34,000  Level Montreal Center
01:36PM 57.9167 -67.5833 224° Southwest 440 506 34,000  Level Montreal Center
01:37PM 57.8167 -67.7333 219° Southwest 440 506 34,000  Level Montreal Center
01:38PM 57.7167 -67.8833 219° Southwest 450 518 34,000  Level Montreal Center
01:39PM 57.6167 -68.0667 225° Southwest 450 518 34,000  Level Montreal Center
01:40PM 57.5333 -68.2167 224° Southwest 450 518 34,000  Level Montreal Center
01:41PM 57.4333 -68.3500 216° Southwest 450 518 34,000  Level Montreal Center
01:42PM 57.3500 -68.5000 224° Southwest 440 506 34,000  Level Montreal Center
01:43PM 57.2500 -68.6500 219° Southwest 440 506 34,000  Level Montreal Center
01:44PM 57.1667 -68.8167 227° Southwest 440 506 34,000  Level Montreal Center
01:45PM 57.0667 -68.9667 219° Southwest 440 506 34,000  Level Montreal Center
01:46PM 56.9667 -69.1000 216° Southwest 440 506 34,000  Level Montreal Center
01:47PM 56.9000 -69.2333 228° Southwest 430 495 34,000  Level Montreal Center
01:48PM 56.7833 -69.3833 215° Southwest 430 495 34,000  Level Montreal Center
01:49PM 56.7000 -69.5500 228° Southwest 440 506 34,000  Level Montreal Center
01:50PM 56.6000 -69.6833 216° Southwest 440 506 34,000  Level Montreal Center
01:51PM 56.5000 -69.8333 220° Southwest 440 506 34,000  Level Montreal Center
01:52PM 56.4167 -69.9667 222° Southwest 440 506 34,000  Level Montreal Center
01:53PM 56.3167 -70.1000 217° Southwest 440 506 34,000  Level Montreal Center
01:54PM 56.2167 -70.2333 217° Southwest 440 506 34,000  Level Montreal Center
01:55PM 56.1333 -70.4000 228° Southwest 440 506 34,000  Level Montreal Center
01:56PM 56.0500 -70.5333 222° Southwest 440 506 34,000  Level Montreal Center
01:57PM 55.9500 -70.6667 217° Southwest 440 506 34,000  Level Montreal Center
01:58PM 55.8500 -70.8000 217° Southwest 440 506 34,000  Level Montreal Center
01:59PM 55.7667 -70.9333 222° Southwest 440 506 34,000  Level Montreal Center
02:00PM 55.6667 -71.0667 217° Southwest 440 506 34,000  Level Montreal Center
02:01PM 55.5500 -71.2333 219° Southwest 440 506 34,000  Level Montreal Center
02:02PM 55.4667 -71.3667 222° Southwest 440 506 34,000  Level Montreal Center
02:03PM 55.3667 -71.4833 214° Southwest 440 506 34,000  Level Montreal Center
02:04PM 55.2667 -71.6167 217° Southwest 440 506 34,000  Level Montreal Center
02:05PM 55.1667 -71.7500 217° Southwest 440 506 34,000  Level Montreal Center
02:06PM 55.0667 -71.9000 221° Southwest 440 506 34,000  Level Montreal Center
02:07PM 54.9833 -72.0333 223° Southwest 440 506 34,000  Level Montreal Center
02:08PM 54.8833 -72.1500 214° Southwest 430 495 34,000  Level Montreal Center
02:09PM 54.8000 -72.2833 223° Southwest 430 495 34,000  Level Montreal Center
02:10PM 54.7000 -72.4000 214° Southwest 430 495 34,000  Level Montreal Center
02:11PM 54.6000 -72.5333 218° Southwest 430 495 34,000  Level Montreal Center
02:13PM 54.4167 -72.8167 222° Southwest 430 495 34,000  Level Montreal Center
02:14PM 54.3167 -72.9333 214° Southwest 430 495 34,000  Level Montreal Center
02:15PM 54.2167 -73.0500 214° Southwest 430 495 34,000  Level Montreal Center
02:16PM 54.1167 -73.1833 218° Southwest 430 495 34,000  Level Montreal Center
02:17PM 54.0333 -73.3000 219° Southwest 430 495 34,000  Level Montreal Center
02:18PM 53.9333 -73.4167 214° Southwest 420 483 34,000  Level Montreal Center
02:19PM 53.8333 -73.5333 215° Southwest 430 495 34,000  Level Montreal Center
02:20PM 53.7333 -73.6500 215° Southwest 430 495 34,000 240 Level Montreal Center
02:21PM 53.6333 -73.7500 211° Southwest 430 495 34,500 900 Climbing Montreal Center
02:22PM 53.5167 -73.8333 203° Southwest 430 495 35,900 720 Climbing Montreal Center
02:23PM 53.4167 -73.9333 211° Southwest 430 495 36,000  Climbing Montreal Center
02:24PM 53.3000 -74.0500 211° Southwest 430 495 36,000  Level Montreal Center
02:25PM 53.1833 -74.1333 203° Southwest 430 495 36,000  Level Montreal Center
02:26PM 53.0833 -74.2333 211° Southwest 430 495 36,000  Level Montreal Center
02:27PM 53.0000 -74.3167 211° Southwest 420 483 36,000  Level Montreal Center
02:28PM 52.8833 -74.4000 203° Southwest 420 483 36,000  Level Montreal Center
02:29PM 52.7667 -74.4667 199° South 420 483 36,000  Level Montreal Center
02:30PM 52.6833 -74.5500 211° Southwest 420 483 36,000  Level Montreal Center
02:31PM 52.5500 -74.6333 201° Southwest 430 495 36,000  Level Montreal Center
02:32PM 52.4500 -74.7167 207° Southwest 420 483 36,000  Level Montreal Center
02:33PM 52.3333 -74.8000 204° Southwest 420 483 36,000  Level Montreal Center
02:34PM 52.2333 -74.9000 211° Southwest 410 472 36,000  Level Montreal Center
02:35PM 52.1333 -74.9833 207° Southwest 420 483 36,000  Level Montreal Center
02:36PM 52.0167 -75.0667 204° Southwest 430 495 36,000  Level Montreal Center
02:37PM 51.9167 -75.1500 207° Southwest 420 483 36,000  Level Montreal Center
02:38PM 51.8167 -75.2333 207° Southwest 420 483 36,000  Level Montreal Center
02:39PM 51.7167 -75.3167 207° Southwest 420 483 36,000  Level Montreal Center
02:40PM 51.6000 -75.4000 204° Southwest 420 483 36,000  Level Montreal Center
02:41PM 51.5000 -75.4833 207° Southwest 420 483 36,000  Level Montreal Center
02:42PM 51.3833 -75.5667 204° Southwest 420 483 36,000  Level Montreal Center
02:43PM 51.2833 -75.6500 208° Southwest 420 483 36,000  Level Montreal Center
02:44PM 51.1833 -75.7167 203° Southwest 420 483 36,000  Level Montreal Center
02:45PM 51.0833 -75.8000 208° Southwest 420 483 36,000  Level Montreal Center
02:46PM 50.9833 -75.8500 197° South 420 483 36,000  Level Montreal Center
02:47PM 50.8667 -75.9333 204° Southwest 420 483 36,000  Level Montreal Center
02:48PM 50.7667 -76.0167 208° Southwest 420 483 36,000  Level Montreal Center
02:49PM 50.6500 -76.1000 204° Southwest 420 483 36,000  Level Montreal Center
02:50PM 50.5500 -76.1833 208° Southwest 420 483 36,000  Level Montreal Center
02:51PM 50.4500 -76.2500 203° Southwest 420 483 36,000  Level Montreal Center
02:52PM 50.3333 -76.3333 205° Southwest 420 483 36,000  Level Montreal Center
02:53PM 50.2333 -76.4167 208° Southwest 420 483 36,000  Level Montreal Center
02:54PM 50.1333 -76.4833 203° Southwest 420 483 36,000  Level Montreal Center
02:55PM 50.0000 -76.5667 202° Southwest 420 483 36,000  Level Montreal Center
02:56PM 49.9000 -76.6500 208° Southwest 420 483 36,000  Level Montreal Center
02:57PM 49.8000 -76.7167 203° Southwest 420 483 36,000  Level Montreal Center
02:58PM 49.6833 -76.8000 205° Southwest 420 483 36,000  Level Montreal Center
02:59PM 49.5833 -76.8667 203° Southwest 420 483 36,000  Level Montreal Center
03:00PM 49.4833 -76.9500 208° Southwest 420 483 36,000  Level Montreal Center
03:01PM 49.3667 -77.0167 200° South 450 518 36,000 -60 Level Montreal Center
03:02PM 49.2667 -77.1000 209° Southwest 410 472 35,900  Descending Montreal Center
03:03PM 49.1500 -77.1667 200° South 420 483 36,000  Climbing Montreal Center
03:04PM 49.0500 -77.2500 209° Southwest 430 495 36,000  Level Montreal Center
03:05PM 48.9167 -77.3167 198° South 430 495 36,000  Level Montreal Center
03:06PM 48.8167 -77.4000 209° Southwest 430 495 36,000  Level Montreal Center
03:07PM 48.7000 -77.4667 201° Southwest 430 495 36,000  Level Montreal Center
03:13PM 48.0070 -77.9200 201° Southwest 438 504 36,000  Level FlightAware
03:14PM 47.8970 -77.9830 201° Southwest 438 504 36,000  Level FlightAware
03:15PM 47.8390 -78.0160 201° Southwest 438 504 36,000  Level FlightAware
03:16PM 47.7280 -78.0820 202° Southwest 435 501 36,000  Level FlightAware
03:17PM 47.6400 -78.1330 201° Southwest 434 499 36,000  Level FlightAware
03:17PM 47.5640 -78.1760 201° Southwest 434 499 36,000  Level FlightAware
03:18PM 47.4770 -78.2260 201° Southwest 433 498 36,000  Level FlightAware
03:19PM 47.4110 -78.2640 201° Southwest 432 497 36,000  Level FlightAware
03:19PM 47.3270 -78.3120 201° Southwest 432 497 36,000  Level FlightAware
03:20PM 47.2530 -78.3540 201° Southwest 433 498 36,000  Level FlightAware
03:21PM 47.1720 -78.4000 201° Southwest 432 497 36,000  Level FlightAware
03:21PM 47.1030 -78.4390 201° Southwest 431 496 36,000  Level FlightAware
03:22PM 47.0150 -78.4880 201° Southwest 431 496 36,000  Level FlightAware
03:23PM 46.9480 -78.5260 201° Southwest 433 498 36,000  Level FlightAware
03:23PM 46.8770 -78.5660 201° Southwest 436 502 36,000  Level FlightAware
03:24PM 46.7930 -78.6130 201° Southwest 440 506 36,000  Level FlightAware
03:25PM 46.7120 -78.6580 201° Southwest 443 510 36,000  Level FlightAware
03:25PM 46.6380 -78.6990 201° Southwest 446 513 36,000  Level FlightAware
03:26PM 46.5520 -78.7460 201° Southwest 447 514 36,000  Level FlightAware
03:27PM 46.4660 -78.7940 201° Southwest 447 514 36,000  Level FlightAware
03:28PM 46.3860 -78.8380 201° Southwest 445 512 36,000  Level FlightAware
03:28PM 46.3080 -78.8800 200° South 445 512 36,000  Level FlightAware
03:29PM 46.2400 -78.9180 201° Southwest 441 507 36,000  Level FlightAware
03:30PM 46.1580 -78.9620 200° South 440 506 36,000  Level FlightAware
03:30PM 46.0780 -79.0060 201° Southwest 442 509 36,000  Level FlightAware
03:31PM 46.0070 -79.0440 200° South 443 510 36,000  Level FlightAware
03:32PM 45.9190 -79.0910 200° South 444 511 36,000  Level FlightAware
03:32PM 45.8350 -79.1370 201° Southwest 443 510 36,000  Level FlightAware
03:33PM 45.7590 -79.1780 201° Southwest 444 511 36,000  Level FlightAware
03:34PM 45.6810 -79.2190 200° South 445 512 36,000  Level FlightAware
03:34PM 45.6050 -79.2600 201° Southwest 447 514 36,000  Level FlightAware
03:35PM 45.5220 -79.3040 200° South 448 516 36,000  Level FlightAware
03:36PM 45.4480 -79.3430 200° South 447 514 36,000  Level FlightAware
03:37PM 45.3640 -79.3870 200° South 444 511 36,000  Level FlightAware
03:37PM 45.2830 -79.4300 200° South 445 512 36,000  Level FlightAware
03:38PM 45.1790 -79.4840 200° South 449 517 36,000  Level FlightAware
03:39PM 45.0780 -79.5370 200° South 450 518 36,000  Level FlightAware
03:40PM 45.0080 -79.5740 200° South 450 518 36,000  Level FlightAware
03:41PM 44.8780 -79.6410 200° South 447 514 36,000  Level FlightAware
03:41PM 44.7920 -79.6850 200° South 444 511 36,000  Level FlightAware
03:42PM 44.7130 -79.7260 200° South 443 510 36,000  Level FlightAware
03:43PM 44.6260 -79.7710 200° South 442 509 36,000  Level FlightAware
03:44PM 44.5550 -79.8170 205° Southwest 440 506 36,000  Level FlightAware
03:44PM 44.4790 -79.8850 213° Southwest 439 505 36,000  Level FlightAware
03:45PM 44.4120 -79.9460 213° Southwest 440 506 36,000  Level FlightAware
03:46PM 44.3440 -80.0080 213° Southwest 441 507 36,000  Level FlightAware
03:46PM 44.2710 -80.0730 213° Southwest 442 509 36,000  Level FlightAware
03:47PM 44.1960 -80.1410 213° Southwest 443 510 36,000  Level FlightAware
03:48PM 44.1250 -80.2030 212° Southwest 444 511 36,000  Level FlightAware
03:48PM 44.0560 -80.2650 213° Southwest 445 512 36,000  Level FlightAware
03:49PM 43.9840 -80.3290 213° Southwest 445 512 36,000  Level FlightAware
03:50PM 43.9080 -80.3950 212° Southwest 444 511 36,000  Level FlightAware
03:50PM 43.8410 -80.4540 212° Southwest 443 510 36,000  Level FlightAware
03:51PM 43.7620 -80.5240 213° Southwest 444 511 36,000  Level FlightAware
03:52PM 43.6840 -80.5920 212° Southwest 444 511 36,000  Level FlightAware
03:53PM 43.6160 -80.6510 212° Southwest 444 511 36,000  Level FlightAware
03:53PM 43.5510 -80.7080 212° Southwest 444 511 36,000  Level FlightAware
03:54PM 43.4790 -80.7700 212° Southwest 444 511 36,000  Level FlightAware
03:55PM 43.3980 -80.8400 212° Southwest 444 511 36,000  Level FlightAware
03:55PM 43.3260 -80.9020 212° Southwest 444 511 36,000  Level FlightAware
03:56PM 43.2490 -80.9690 212° Southwest 446 513 36,000  Level FlightAware
03:57PM 43.1790 -81.0290 212° Southwest 448 516 36,000  Level FlightAware
03:57PM 43.1170 -81.0820 212° Southwest 449 517 36,000  Level FlightAware
03:58PM 43.0390 -81.1460 211° Southwest 452 520 36,000  Level FlightAware
03:59PM 42.9690 -81.1890 204° Southwest 455 524 36,000  Level FlightAware
03:59PM 42.8940 -81.2380 206° Southwest 455 524 36,000  Level FlightAware
04:00PM 42.8190 -81.2840 204° Southwest 454 522 36,000  Level FlightAware
04:01PM 42.7430 -81.3310 204° Southwest 455 524 36,000  Level FlightAware
04:02PM 42.6470 -81.3900 204° Southwest 457 526 36,000  Level FlightAware
04:02PM 42.5690 -81.4380 204° Southwest 460 529 36,000  Level FlightAware
04:03PM 42.4910 -81.4850 204° Southwest 461 531 36,000  Level FlightAware
04:04PM 42.4030 -81.5380 204° Southwest 462 532 36,000  Level FlightAware
04:04PM 42.3450 -81.5740 205° Southwest 465 535 36,000  Level FlightAware
04:05PM 42.2630 -81.6230 204° Southwest 465 535 36,000  Level FlightAware
04:06PM 42.1740 -81.6770 204° Southwest 465 535 36,000  Level FlightAware
04:06PM 42.1090 -81.7160 204° Southwest 465 535 36,000  Level FlightAware
04:07PM 42.0180 -81.7710 204° Southwest 467 537 36,000  Level FlightAware
04:07PM 41.9420 -81.8160 204° Southwest 469 540 36,000  Level FlightAware
04:08PM 41.8620 -81.8640 204° Southwest 470 541 36,000  Level FlightAware
04:09PM 41.7760 -81.9150 204° Southwest 470 541 36,000  Level FlightAware
04:10PM 41.6970 -81.9620 204° Southwest 470 541 36,000  Level FlightAware
04:10PM 41.6140 -82.0110 204° Southwest 472 543 36,000  Level FlightAware
04:11PM 41.5320 -82.0590 204° Southwest 473 544 36,000  Level FlightAware
04:12PM 41.4540 -82.1060 204° Southwest 473 544 36,000  Level FlightAware
04:12PM 41.3580 -82.1590 203° Southwest 476 548 36,000  Level FlightAware
04:13PM 41.2810 -82.1870 195° South 480 552 36,000  Level FlightAware
04:14PM 41.1930 -82.2210 196° South 479 551 36,000  Level FlightAware
04:14PM 41.1050 -82.2530 195° South 482 555 36,000  Level FlightAware
04:15PM 41.0140 -82.2850 195° South 481 554 36,000  Level FlightAware
04:16PM 40.9270 -82.3160 195° South 481 554 36,000  Level FlightAware
04:16PM 40.8330 -82.3500 195° South 481 554 36,000  Level FlightAware
04:17PM 40.7380 -82.3830 195° South 483 556 36,000  Level FlightAware
04:18PM 40.6600 -82.4110 195° South 484 557 36,000  Level FlightAware
04:18PM 40.5700 -82.4420 195° South 485 558 36,000  Level FlightAware
04:19PM 40.4840 -82.4730 195° South 485 558 36,000  Level FlightAware
04:20PM 40.4070 -82.4990 194° South 486 559 36,000  Level FlightAware
04:21PM 40.3030 -82.5360 195° South 487 560 36,000  Level FlightAware
04:21PM 40.2150 -82.5660 195° South 488 562 36,000  Level FlightAware
04:22PM 40.1180 -82.5880 190° South 494 568 36,000  Level FlightAware
04:23PM 40.0180 -82.5960 184° South 497 572 36,000  Level FlightAware
04:23PM 39.9180 -82.6040 184° South 499 574 36,000  Level FlightAware
04:24PM 39.8430 -82.6090 183° South 501 577 36,000  Level FlightAware
04:25PM 39.7410 -82.6160 183° South 501 577 36,000  Level FlightAware
04:25PM 39.6520 -82.6220 183° South 502 578 36,000  Level FlightAware
04:26PM 39.5470 -82.6290 183° South 501 577 36,000  Level FlightAware
04:27PM 39.4550 -82.6360 183° South 502 578 36,000  Level FlightAware
04:27PM 39.3520 -82.6420 183° South 502 578 36,000  Level FlightAware
04:28PM 39.2550 -82.6490 183° South 502 578 36,000  Level FlightAware
04:29PM 39.1720 -82.6540 183° South 503 579 36,000  Level FlightAware
04:29PM 39.0710 -82.6610 183° South 505 581 36,000  Level FlightAware
04:30PM 38.9790 -82.6670 183° South 506 582 36,000  Level FlightAware
04:31PM 38.8910 -82.6730 183° South 509 586 36,000  Level FlightAware
04:32PM 38.7800 -82.6800 183° South 511 588 36,000  Level FlightAware
04:32PM 38.6810 -82.6870 183° South 511 588 36,000  Level FlightAware
04:33PM 38.5830 -82.6930 183° South 513 590 36,000  Level FlightAware
04:34PM 38.4800 -82.7000 183° South 515 593 36,000  Level FlightAware
04:34PM 38.3800 -82.7060 183° South 515 593 36,000  Level FlightAware
04:35PM 38.2810 -82.7130 183° South 516 594 36,000  Level FlightAware
04:36PM 38.1770 -82.7200 183° South 517 595 36,000  Level FlightAware
04:36PM 38.1256 -82.7229 183° South 518 596 36,000  Level FlightAware ADS-B
04:37PM 38.0516 -82.7277 183° South 518 596 36,000  Level FlightAware ADS-B
04:37PM 37.9760 -82.7330 183° South 518 596 36,000  Level FlightAware
04:37PM 37.9376 -82.7350 182° South 519 597 36,000  Level FlightAware ADS-B
04:38PM 37.8241 -82.7422 183° South 519 597 36,000  Level FlightAware ADS-B
04:39PM 37.7563 -82.7484 184° South 517 595 36,000  Level FlightAware ADS-B
04:39PM 37.7242 -82.7549 189° South 514 592 36,000  Level FlightAware ADS-B
04:40PM 37.6300 -82.7895 196° South 512 589 36,000  Level FlightAware ADS-B
04:40PM 37.5447 -82.8388 205° Southwest 498 573 36,000  Level FlightAware ADS-B
04:41PM 37.4820 -82.8807 208° Southwest 497 572 36,000  Level FlightAware ADS-B
04:41PM 37.3989 -82.9353 208° Southwest 497 572 36,000  Level FlightAware ADS-B
04:42PM 37.3002 -83.0001 208° Southwest 496 571 36,000  Level FlightAware ADS-B
04:43PM 37.2389 -83.0401 207° Southwest 496 571 36,000  Level FlightAware ADS-B
04:43PM 37.1769 -83.0806 207° Southwest 495 570 36,000  Level FlightAware ADS-B
04:44PM 37.1033 -83.1286 207° Southwest 495 570 36,000  Level FlightAware ADS-B
04:44PM 37.0392 -83.1702 207° Southwest 494 568 36,000  Level FlightAware ADS-B
04:45PM 36.9735 -83.2130 207° Southwest 495 570 36,000  Level FlightAware ADS-B
04:45PM 36.9105 -83.2537 207° Southwest 496 571 36,000  Level FlightAware ADS-B
04:46PM 36.8270 -83.3077 207° Southwest 496 571 36,000  Level FlightAware ADS-B
04:47PM 36.7652 -83.3475 207° Southwest 496 571 36,000  Level FlightAware ADS-B
04:47PM 36.6837 -83.4001 207° Southwest 498 573 36,000 120 Level FlightAware ADS-B
04:48PM 36.6185 -83.4419 207° Southwest 497 572 36,200 600 Climbing FlightAware ADS-B
04:48PM 36.5546 -83.4829 207° Southwest 490 564 36,700 720 Climbing FlightAware ADS-B
04:49PM 36.4926 -83.5226 207° Southwest 488 562 37,000 240 Climbing FlightAware ADS-B
04:49PM 36.4313 -83.5617 207° Southwest 489 563 37,000  Level FlightAware ADS-B
04:50PM 36.3711 -83.6001 207° Southwest 488 562 37,000  Level FlightAware ADS-B
04:50PM 36.3100 -83.6389 207° Southwest 486 559 37,000  Level FlightAware ADS-B
04:51PM 36.2482 -83.6782 207° Southwest 486 559 37,000  Level FlightAware ADS-B
04:51PM 36.1869 -83.7171 207° Southwest 485 558 37,000  Level FlightAware ADS-B
04:52PM 36.1253 -83.7560 207° Southwest 487 560 37,000  Level FlightAware ADS-B
04:52PM 36.0630 -83.7954 207° Southwest 487 560 37,000  Level FlightAware ADS-B
04:53PM 35.9996 -83.8354 207° Southwest 487 560 37,000  Level FlightAware ADS-B
04:53PM 35.9742 -83.8510 206° Southwest 490 564 37,000  Level FlightAware ADS-B
04:54PM 35.9346 -83.8713 203° Southwest 495 570 37,000  Level FlightAware ADS-B
04:54PM 35.8728 -83.8961 198° South 501 577 37,000  Level FlightAware ADS-B
04:54PM 35.8208 -83.9121 194° South 505 581 37,000  Level FlightAware ADS-B
04:55PM 35.7491 -83.9300 191° South 503 579 37,000  Level FlightAware ADS-B
04:55PM 35.6806 -83.9485 192° South 500 575 37,000  Level FlightAware ADS-B
04:56PM 35.6077 -83.9669 192° South 500 575 37,000  Level FlightAware ADS-B
04:57PM 35.5285 -83.9863 191° South 499 574 37,000  Level FlightAware ADS-B
04:57PM 35.4492 -84.0054 191° South 499 574 37,000  Level FlightAware ADS-B
04:58PM 35.3807 -84.0219 191° South 497 572 37,000  Level FlightAware ADS-B
04:58PM 35.3070 -84.0400 191° South 497 572 37,000  Level FlightAware
04:58PM 35.2757 -84.0472 191° South 498 573 37,000  Level FlightAware ADS-B
04:59PM 35.2077 -84.0635 191° South 497 572 37,000  Level FlightAware ADS-B
04:59PM 35.1396 -84.0799 191° South 498 573 37,000  Level FlightAware ADS-B
05:00PM 35.0683 -84.0969 191° South 497 572 37,000  Level FlightAware ADS-B
05:00PM 34.9998 -84.1133 191° South 498 573 37,000  Level FlightAware ADS-B
05:01PM 34.9300 -84.1300 191° South 497 572 37,000  Level FlightAware ADS-B
05:01PM 34.8613 -84.1464 191° South 496 571 37,000  Level FlightAware ADS-B
05:02PM 34.7922 -84.1627 191° South 494 568 37,000  Level FlightAware ADS-B
05:02PM 34.7195 -84.1800 191° South 494 568 37,000  Level FlightAware ADS-B
05:03PM 34.6480 -84.1970 191° South 495 570 37,000  Level FlightAware
05:03PM 34.5830 -84.2123 191° South 495 570 37,000  Level FlightAware ADS-B
05:04PM 34.5109 -84.2294 191° South 501 577 37,000  Level FlightAware ADS-B
05:05PM 34.4367 -84.2469 191° South 504 580 37,000  Level FlightAware ADS-B
05:05PM 34.3658 -84.2635 191° South 505 581 37,000  Level FlightAware ADS-B
05:06PM 34.2845 -84.2826 191° South 505 581 37,000  Level FlightAware ADS-B
05:06PM 34.1760 -84.3080 191° South 504 580 37,000  Level FlightAware
05:07PM 34.0700 -84.3330 191° South 503 579 37,000  Level FlightAware
05:08PM 33.9780 -84.3540 191° South 501 577 37,000  Level FlightAware
05:08PM 33.9153 -84.3687 191° South 500 575 37,000  Level FlightAware ADS-B
05:09PM 33.8407 -84.3860 191° South 500 575 37,000  Level FlightAware ADS-B
05:09PM 33.7709 -84.4022 191° South 500 575 37,000  Level FlightAware ADS-B
05:10PM 33.6771 -84.4235 191° South 500 575 37,000  Level FlightAware ADS-B
05:11PM 33.6070 -84.4316 185° South 504 580 37,000  Level FlightAware ADS-B
05:11PM 33.5897 -84.4324 182° South 504 580 37,000  Level FlightAware ADS-B
05:11PM 33.5075 -84.4314 179° South 503 579 37,000  Level FlightAware ADS-B
05:12PM 33.4371 -84.4306 179° South 503 579 37,000  Level FlightAware ADS-B
05:12PM 33.3656 -84.4296 179° South 503 579 37,000  Level FlightAware ADS-B
05:13PM 33.2858 -84.4280 179° South 503 579 37,000  Level FlightAware ADS-B
05:14PM 33.1995 -84.4262 179° South 503 579 37,000  Level FlightAware ADS-B
05:14PM 33.1050 -84.4240 179° South 497 572 37,000  Level FlightAware
05:15PM 33.0220 -84.4230 179° South 495 570 37,000  Level FlightAware
05:16PM 32.9240 -84.4210 179° South 495 570 37,000  Level FlightAware
05:16PM 32.8380 -84.4190 179° South 496 571 37,000  Level FlightAware
05:17PM 32.7430 -84.4170 179° South 498 573 37,000  Level FlightAware
05:18PM 32.6400 -84.4150 179° South 499 574 37,000  Level FlightAware
05:18PM 32.5490 -84.4130 179° South 503 579 37,000  Level FlightAware
05:19PM 32.4440 -84.4110 179° South 504 580 37,000  Level FlightAware
05:20PM 32.3460 -84.4090 179° South 505 581 37,000  Level FlightAware
05:20PM 32.2610 -84.4070 179° South 507 583 37,000  Level FlightAware
05:21PM 32.1680 -84.4050 179° South 505 581 37,000  Level FlightAware
05:22PM 32.0730 -84.4030 179° South 506 582 37,000  Level FlightAware
05:23PM 31.9050 -84.4025 179° South 506 582 37,000  Level Jacksonville Center
05:29PM 31.0890 -84.3840 179° South 488 562 37,000  Level FlightAware
05:29PM 31.0160 -84.3830 179° South 483 556 37,000  Level FlightAware
05:30PM 30.9060 -84.3810 179° South 483 556 37,000  Level FlightAware
05:31PM 30.8230 -84.3790 179° South 480 552 37,000  Level FlightAware
05:32PM 30.7090 -84.3770 179° South 477 549 37,000  Level FlightAware
05:32PM 30.6050 -84.3160 153° Southeast 486 559 37,000  Level FlightAware
05:33PM 30.5290 -84.2770 156° South 486 559 37,000  Level FlightAware
05:34PM 30.4430 -84.2350 157° South 485 558 37,000  Level FlightAware
05:34PM 30.3480 -84.1870 156° South 486 559 37,000  Level FlightAware
05:35PM 30.2530 -84.1400 157° South 486 559 37,000  Level FlightAware
05:36PM 30.1780 -84.1020 156° South 486 559 37,000  Level FlightAware
05:36PM 30.1100 -84.0690 157° South 476 548 37,000  Level FlightAware
05:37PM 29.9880 -84.0080 157° South 478 550 37,000  Level FlightAware
05:38PM 29.9140 -83.9720 157° South 487 560 37,000  Level FlightAware
05:39PM 29.8310 -83.9310 157° South 487 560 37,000 540 Level FlightAware
05:39PM 29.7380 -83.8850 157° South 473 544 37,800 1,080 Climbing FlightAware
05:40PM 29.6670 -83.8500 157° South 472 543 38,500 900 Climbing FlightAware
05:41PM 29.5760 -83.8050 157° South 469 540 39,000 300 Climbing FlightAware
05:41PM 29.4860 -83.7610 157° South 458 527 39,000  Level FlightAware
05:42PM 29.4080 -83.7230 157° South 468 539 39,000  Level FlightAware
05:43PM 29.3280 -83.6840 157° South 459 528 39,000  Level FlightAware
05:43PM 29.2490 -83.6450 157° South 458 527 39,000  Level FlightAware
05:44PM 29.1700 -83.6070 157° South 458 527 39,000  Level FlightAware
05:45PM 29.0900 -83.5680 157° South 459 528 39,000  Level FlightAware
05:46PM 29.0010 -83.5250 157° South 469 540 39,000  Level FlightAware
05:46PM 28.9220 -83.4870 157° South 470 541 39,000  Level FlightAware
05:47PM 28.7990 -83.4270 157° South 471 542 39,000  Level FlightAware
05:48PM 28.7180 -83.3880 157° South 472 543 39,000  Level FlightAware
05:49PM 28.6380 -83.3500 157° South 471 542 39,000  Level FlightAware
05:49PM 28.5480 -83.3070 157° South 471 542 39,000  Level FlightAware
05:50PM 28.4680 -83.2680 157° South 473 544 39,000  Level FlightAware
05:51PM 28.3750 -83.2240 157° South 474 545 39,000  Level FlightAware
05:51PM 28.2950 -83.1860 157° South 469 540 39,000  Level FlightAware
05:52PM 28.2140 -83.1470 157° South 469 540 39,000  Level FlightAware
05:53PM 28.1230 -83.1030 157° South 469 540 39,000  Level FlightAware
05:53PM 28.0410 -83.0660 158° South 474 545 39,000  Level FlightAware
05:54PM 27.9550 -83.0430 167° South 473 544 39,000  Level FlightAware
05:55PM 27.8700 -83.0250 169° South 468 539 39,000  Level FlightAware
05:55PM 27.7860 -82.9880 159° South 471 542 39,000  Level FlightAware
05:56PM 27.7090 -82.9400 151° Southeast 479 551 39,000  Level FlightAware
05:57PM 27.6320 -82.8910 151° Southeast 478 550 39,000  Level FlightAware
05:57PM 27.5550 -82.8440 152° Southeast 478 550 39,000  Level FlightAware
05:58PM 27.4780 -82.7970 152° Southeast 477 549 39,000  Level FlightAware
05:59PM 27.3950 -82.7590 158° South 469 540 39,000  Level FlightAware
06:00PM 27.3030 -82.7160 157° South 467 537 39,000  Level FlightAware
06:00PM 27.2220 -82.6780 157° South 468 539 39,000  Level FlightAware
06:01PM 27.1400 -82.6400 158° South 473 544 39,000  Level FlightAware
06:02PM 27.0490 -82.5970 157° South 472 543 39,000  Level FlightAware
06:02PM 26.9790 -82.5650 158° South 472 543 39,000  Level FlightAware
06:03PM 26.9030 -82.5300 158° South 474 545 39,000  Level FlightAware
06:04PM 26.8060 -82.4840 157° South 476 548 39,000  Level FlightAware
06:05PM 26.8690 -82.5140 337° Northwest 476 548 39,000  Level FlightAware
06:05PM 26.7800 -82.4720 157° South 476 548 39,000  Level FlightAware
06:06PM 26.7130 -82.4420 158° South 479 551 39,000  Level FlightAware
06:07PM 26.6440 -82.4090 157° South 479 551 39,000  Level FlightAware
06:08PM 26.5740 -82.3770 158° South 477 549 39,000  Level FlightAware
06:08PM 26.2470 -82.2930 167° South 465 535 39,000  Level FlightAware
06:09PM 26.1640 -82.3010 185° South 471 542 39,000  Level FlightAware
06:10PM 26.0850 -82.3090 185° South 471 542 39,000  Level FlightAware
06:10PM 25.9860 -82.3200 186° South 470 541 39,000  Level FlightAware
06:11PM 25.8800 -82.3300 185° South 470 541 39,000  Level FlightAware
06:12PM 25.7810 -82.3400 185° South 469 540 39,000  Level FlightAware
06:12PM 25.6920 -82.3490 185° South 468 539 39,000  Level FlightAware
06:13PM 25.5880 -82.3600 185° South 468 539 39,000  Level FlightAware
06:14PM 25.4950 -82.3690 185° South 469 540 39,000 -420 Level FlightAware
06:15PM 25.3960 -82.3790 185° South 38,600 -540 Descending FlightAware
06:16PM 25.2800 -82.3910 185° South 468 539 38,100 -360 Descending FlightAware
06:16PM 25.2140 -82.3970 185° South 468 539 38,100 -1,020 Level FlightAware
06:17PM 25.1050 -82.4090 186° South 485 558 36,800 -1,500 Descending FlightAware
06:18PM 24.9810 -82.4210 185° South 35,500 -1,380 Descending FlightAware
06:18PM 24.8940 -82.4300 185° South 467 537 34,800 -1,140 Descending FlightAware
06:19PM 24.8070 -82.4390 185° South 466 536 34,000 -1,440 Descending FlightAware
06:20PM 24.7210 -82.4470 185° South 468 539 32,900 -1,140 Descending FlightAware
06:21PM 24.6230 -82.4570 185° South 465 535 32,200 -1,440 Descending FlightAware
06:22PM 24.4960 -82.4690 185° South 453 521 30,200 -1,320 Descending FlightAware
06:22PM 24.4310 -82.4760 186° South 453 521 30,200  Level FlightAware
06:23PM 24.3240 -82.4860 185° South 453 521 30,200  Level FlightAware
06:24PM 24.2600 -82.4920 185° South 453 521 30,200  Level FlightAware
06:25PM 24.1750 -82.5000 185° South 453 521 30,200  Level FlightAware
06:25PM 24.1320 -82.5040 185° South 453 521 30,200  Level FlightAware
06:26PM 24.0450 -82.5130 185° South 453 521 30,200  Level FlightAware
06:27PM 23.9800 -82.5190 185° South 453 521 30,200  Level FlightAware
06:27PM 23.8950 -82.5270 185° South 453 521 30,200  Level FlightAware
06:28PM 23.8310 -82.5330 185° South 453 521 30,200  Level FlightAware
06:29PM 23.7440 -82.5410 185° South 453 521 30,200  Level FlightAware
06:29PM 23.6820 -82.5470 185° South 453 521 30,200  Level FlightAware
06:30PM 23.5960 -82.5560 185° South 453 521 30,200  Level FlightAware
06:31PM 23.5310 -82.5620 185° South 453 521 30,200  Level FlightAware
06:34PM 23.2050 -82.4698 180° South  Level Estimated
06:35PM 23.0880 -82.4076 170° South  Level FlightAware Approximate
06:36PM 22.9891 -82.4091 180° South  Level Estimated
06:37PM 22.9891 -82.4091 180° South  Level Estimated
06:38PM 22.9891 -82.4091 180° South  Level Estimated
06:39PM 22.9891 -82.4091 180° South  Level Estimated
06:40PM 22.9891 -82.4091 180° South  Level Estimated
06:41PM 22.9891 -82.4091 180° South  Level Estimated
06:42PM 22.9891 -82.4091 180° South  Level Estimated
06:43PM 22.9891 -82.4091 180° South  Level Estimated
06:44PM 22.9891 -82.4091 180° South  Level Estimated
06:45PM 22.9891 -82.4091 180° South  Level Estimated
06:46PM 22.9891 -82.4091 180° South  Level Estimated
06:47PM 22.9891 -82.4091 180° South  Level Estimated
06:48PM 22.9891 -82.4091 180° South  Level Estimated
06:49PM 22.9891 -82.4091 180° South  Level Estimated
06:50PM 22.9891 -82.4091 180° South  Level Estimated
06:51PM 22.9891 -82.4091 180° South  Level Estimated
06:52PM 22.9891 -82.4091 180° South  Level Estimated
06:53PM 22.9891 -82.4091 180° South  Level Estimated
06:54PM 22.9891 -82.4091 180° South  Level Estimated
06:55PM 22.9891 -82.4091 180° South  Level Estimated